sensor_id;sensor_type;location;lat;lon;timestamp;P1;durP1;ratioP1;P2;durP2;ratioP2
59306;SDS011;47983;53.016;-2.260;2023-03-13T00:01:37;1.90;;;1.40;;
59306;SDS011;47983;53.016;-2.260;2023-03-13T00:04:06;1.30;;;1.20;;
59306;SDS011;47983;53.016;-2.260;2023-03-13T00:06:35;1.58;;;1.48;;
59306;SDS011;47983;53.016;-2.260;2023-03-13T00:09:04;1.80;;;1.07;;
59306;SDS011;47983;53.016;-2.260;2023-03-13T00:11:34;1.98;;;1.27;;
59306;SDS011;47983;53.016;-2.260;2023-03-13T00:14:02;2.97;;;1.77;;
59306;SDS011;47983;53.016;-2.260;2023-03-13T00:16:31;1.60;;;1.40;;
59306;SDS011;47983;53.016;-2.260;2023-03-13T00:19:00;1.70;;;1.23;;
59306;SDS011;47983;53.016;-2.260;2023-03-13T00:21:28;3.47;;;1.13;;
59306;SDS011;47983;53.016;-2.260;2023-03-13T00:23:57;1.70;;;1.60;;
59306;SDS011;47983;53.016;-2.260;2023-03-13T00:26:26;1.20;;;1.10;;
59306;SDS011;47983;53.016;-2.260;2023-03-13T00:28:55;3.03;;;1.30;;
59306;SDS011;47983;53.016;-2.260;2023-03-13T00:31:24;1.55;;;1.30;;
59306;SDS011;47983;53.016;-2.260;2023-03-13T00:33:57;3.42;;;1.30;;
59306;SDS011;47983;53.016;-2.260;2023-03-13T00:36:27;2.45;;;1.50;;
59306;SDS011;47983;53.016;-2.260;2023-03-13T00:39:01;2.70;;;1.80;;
59306;SDS011;47983;53.016;-2.260;2023-03-13T00:41:30;1.50;;;1.40;;
59306;SDS011;47983;53.016;-2.260;2023-03-13T00:43:59;4.18;;;1.30;;
59306;SDS011;47983;53.016;-2.260;2023-03-13T00:46:27;1.40;;;1.30;;
59306;SDS011;47983;53.016;-2.260;2023-03-13T00:48:56;4.20;;;1.60;;
59306;SDS011;47983;53.016;-2.260;2023-03-13T00:51:24;0.90;;;0.90;;
59306;SDS011;47983;53.016;-2.260;2023-03-13T00:53:54;1.98;;;1.10;;
59306;SDS011;47983;53.016;-2.260;2023-03-13T00:56:22;1.33;;;0.77;;
59306;SDS011;47983;53.016;-2.260;2023-03-13T00:58:50;1.02;;;0.80;;
59306;SDS011;47983;53.016;-2.260;2023-03-13T01:03:55;3.40;;;1.30;;
59306;SDS011;47983;53.016;-2.260;2023-03-13T01:06:30;2.80;;;1.10;;
59306;SDS011;47983;53.016;-2.260;2023-03-13T01:08:59;3.97;;;0.80;;
59306;SDS011;47983;53.016;-2.260;2023-03-13T01:11:28;1.88;;;0.98;;
59306;SDS011;47983;53.016;-2.260;2023-03-13T01:13:59;2.78;;;0.90;;
59306;SDS011;47983;53.016;-2.260;2023-03-13T01:16:29;4.85;;;0.93;;
59306;SDS011;47983;53.016;-2.260;2023-03-13T01:18:59;7.90;;;1.20;;
59306;SDS011;47983;53.016;-2.260;2023-03-13T01:21:32;2.80;;;1.10;;
59306;SDS011;47983;53.016;-2.260;2023-03-13T01:24:00;3.35;;;0.70;;
59306;SDS011;47983;53.016;-2.260;2023-03-13T01:26:28;7.05;;;1.33;;
59306;SDS011;47983;53.016;-2.260;2023-03-13T01:28:55;5.38;;;1.35;;
59306;SDS011;47983;53.016;-2.260;2023-03-13T01:31:28;3.72;;;1.30;;
59306;SDS011;47983;53.016;-2.260;2023-03-13T01:33:59;3.47;;;1.48;;
59306;SDS011;47983;53.016;-2.260;2023-03-13T01:36:29;4.95;;;1.27;;
59306;SDS011;47983;53.016;-2.260;2023-03-13T01:38:58;2.38;;;1.10;;
59306;SDS011;47983;53.016;-2.260;2023-03-13T01:41:28;6.63;;;1.00;;
59306;SDS011;47983;53.016;-2.260;2023-03-13T01:43:57;2.45;;;0.95;;
59306;SDS011;47983;53.016;-2.260;2023-03-13T01:46:30;6.50;;;1.13;;
59306;SDS011;47983;53.016;-2.260;2023-03-13T01:49:28;2.67;;;0.63;;
59306;SDS011;47983;53.016;-2.260;2023-03-13T01:52:25;3.08;;;0.73;;
59306;SDS011;47983;53.016;-2.260;2023-03-13T01:55:32;5.57;;;1.50;;
59306;SDS011;47983;53.016;-2.260;2023-03-13T01:58:00;1.83;;;0.40;;
59306;SDS011;47983;53.016;-2.260;2023-03-13T02:00:29;1.25;;;0.60;;
59306;SDS011;47983;53.016;-2.260;2023-03-13T02:03:03;3.60;;;0.70;;
59306;SDS011;47983;53.016;-2.260;2023-03-13T02:05:35;1.45;;;0.50;;
59306;SDS011;47983;53.016;-2.260;2023-03-13T02:08:07;1.35;;;0.30;;
59306;SDS011;47983;53.016;-2.260;2023-03-13T02:10:53;0.55;;;0.40;;
59306;SDS011;47983;53.016;-2.260;2023-03-13T02:13:28;1.40;;;0.20;;
59306;SDS011;47983;53.016;-2.260;2023-03-13T02:15:56;0.73;;;0.47;;
59306;SDS011;47983;53.016;-2.260;2023-03-13T02:18:24;0.68;;;0.20;;
59306;SDS011;47983;53.016;-2.260;2023-03-13T02:20:53;0.45;;;0.30;;
59306;SDS011;47983;53.016;-2.260;2023-03-13T02:23:34;0.32;;;0.10;;
59306;SDS011;47983;53.016;-2.260;2023-03-13T02:26:15;0.30;;;0.10;;
59306;SDS011;47983;53.016;-2.260;2023-03-13T02:28:43;0.90;;;0.08;;
59306;SDS011;47983;53.016;-2.260;2023-03-13T02:33:41;0.03;;;0.00;;
59306;SDS011;47983;53.016;-2.260;2023-03-13T02:36:14;0.20;;;0.00;;
59306;SDS011;47983;53.016;-2.260;2023-03-13T02:38:47;0.00;;;0.00;;
59306;SDS011;47983;53.016;-2.260;2023-03-13T02:41:22;0.47;;;0.10;;
59306;SDS011;47983;53.016;-2.260;2023-03-13T02:43:53;5.40;;;0.10;;
59306;SDS011;47983;53.016;-2.260;2023-03-13T02:46:21;0.55;;;0.00;;
59306;SDS011;47983;53.016;-2.260;2023-03-13T02:48:53;0.32;;;0.10;;
59306;SDS011;47983;53.016;-2.260;2023-03-13T02:51:28;0.38;;;0.00;;
59306;SDS011;47983;53.016;-2.260;2023-03-13T02:54:02;0.20;;;0.00;;
59306;SDS011;47983;53.016;-2.260;2023-03-13T02:56:36;0.52;;;0.00;;
59306;SDS011;47983;53.016;-2.260;2023-03-13T02:59:08;0.00;;;0.00;;
59306;SDS011;47983;53.016;-2.260;2023-03-13T03:01:38;0.10;;;0.00;;
59306;SDS011;47983;53.016;-2.260;2023-03-13T03:04:06;0.85;;;0.10;;
59306;SDS011;47983;53.016;-2.260;2023-03-13T03:06:34;1.08;;;0.10;;
59306;SDS011;47983;53.016;-2.260;2023-03-13T03:09:03;0.63;;;0.10;;
59306;SDS011;47983;53.016;-2.260;2023-03-13T03:11:34;0.55;;;0.10;;
59306;SDS011;47983;53.016;-2.260;2023-03-13T03:14:06;0.10;;;0.00;;
59306;SDS011;47983;53.016;-2.260;2023-03-13T03:16:39;0.00;;;0.00;;
59306;SDS011;47983;53.016;-2.260;2023-03-13T03:19:08;0.45;;;0.10;;
59306;SDS011;47983;53.016;-2.260;2023-03-13T03:21:37;0.20;;;0.05;;
59306;SDS011;47983;53.016;-2.260;2023-03-13T03:24:05;0.63;;;0.03;;
59306;SDS011;47983;53.016;-2.260;2023-03-13T03:26:33;0.90;;;0.15;;
59306;SDS011;47983;53.016;-2.260;2023-03-13T03:29:04;1.20;;;0.10;;
59306;SDS011;47983;53.016;-2.260;2023-03-13T03:31:35;1.75;;;0.17;;
59306;SDS011;47983;53.016;-2.260;2023-03-13T03:34:03;0.30;;;0.20;;
59306;SDS011;47983;53.016;-2.260;2023-03-13T03:36:31;2.05;;;0.30;;
59306;SDS011;47983;53.016;-2.260;2023-03-13T03:39:00;6.40;;;0.30;;
59306;SDS011;47983;53.016;-2.260;2023-03-13T03:41:29;3.17;;;0.90;;
59306;SDS011;47983;53.016;-2.260;2023-03-13T03:43:57;1.42;;;0.30;;
59306;SDS011;47983;53.016;-2.260;2023-03-13T03:46:33;2.05;;;0.40;;
59306;SDS011;47983;53.016;-2.260;2023-03-13T03:49:01;8.02;;;1.00;;
59306;SDS011;47983;53.016;-2.260;2023-03-13T03:51:28;4.90;;;1.35;;
59306;SDS011;47983;53.016;-2.260;2023-03-13T03:53:56;2.85;;;0.68;;
59306;SDS011;47983;53.016;-2.260;2023-03-13T03:56:24;5.63;;;0.88;;
59306;SDS011;47983;53.016;-2.260;2023-03-13T03:58:55;8.32;;;1.20;;
59306;SDS011;47983;53.016;-2.260;2023-03-13T04:01:35;5.95;;;0.90;;
59306;SDS011;47983;53.016;-2.260;2023-03-13T04:04:04;5.80;;;0.77;;
59306;SDS011;47983;53.016;-2.260;2023-03-13T04:06:32;8.88;;;1.20;;
59306;SDS011;47983;53.016;-2.260;2023-03-13T04:09:01;6.13;;;1.50;;
59306;SDS011;47983;53.016;-2.260;2023-03-13T04:11:29;8.45;;;1.23;;
59306;SDS011;47983;53.016;-2.260;2023-03-13T04:13:57;7.95;;;1.02;;
59306;SDS011;47983;53.016;-2.260;2023-03-13T04:16:25;8.25;;;1.00;;
59306;SDS011;47983;53.016;-2.260;2023-03-13T04:18:54;7.75;;;1.50;;
59306;SDS011;47983;53.016;-2.260;2023-03-13T04:21:24;6.03;;;1.45;;
59306;SDS011;47983;53.016;-2.260;2023-03-13T04:23:58;5.78;;;1.48;;
59306;SDS011;47983;53.016;-2.260;2023-03-13T04:26:26;5.05;;;1.20;;
59306;SDS011;47983;53.016;-2.260;2023-03-13T04:28:56;7.75;;;1.15;;
59306;SDS011;47983;53.016;-2.260;2023-03-13T04:31:38;10.10;;;1.27;;
59306;SDS011;47983;53.016;-2.260;2023-03-13T04:34:35;8.70;;;0.90;;
59306;SDS011;47983;53.016;-2.260;2023-03-13T04:37:21;6.05;;;1.33;;
59306;SDS011;47983;53.016;-2.260;2023-03-13T04:39:57;8.52;;;1.10;;
59306;SDS011;47983;53.016;-2.260;2023-03-13T04:42:57;10.25;;;1.10;;
59306;SDS011;47983;53.016;-2.260;2023-03-13T04:45:54;7.78;;;1.13;;
59306;SDS011;47983;53.016;-2.260;2023-03-13T04:48:21;6.97;;;1.20;;
59306;SDS011;47983;53.016;-2.260;2023-03-13T04:51:12;8.07;;;1.50;;
59306;SDS011;47983;53.016;-2.260;2023-03-13T04:53:55;3.38;;;1.00;;
59306;SDS011;47983;53.016;-2.260;2023-03-13T04:56:34;17.00;;;1.50;;
59306;SDS011;47983;53.016;-2.260;2023-03-13T04:59:25;15.40;;;1.40;;
59306;SDS011;47983;53.016;-2.260;2023-03-13T05:02:11;5.90;;;1.45;;
59306;SDS011;47983;53.016;-2.260;2023-03-13T05:05:06;13.90;;;1.48;;
59306;SDS011;47983;53.016;-2.260;2023-03-13T05:07:52;14.73;;;1.50;;
59306;SDS011;47983;53.016;-2.260;2023-03-13T05:10:43;13.15;;;2.30;;
59306;SDS011;47983;53.016;-2.260;2023-03-13T05:13:13;10.98;;;1.88;;
59306;SDS011;47983;53.016;-2.260;2023-03-13T05:16:09;12.57;;;2.15;;
59306;SDS011;47983;53.016;-2.260;2023-03-13T05:18:55;9.07;;;1.58;;
59306;SDS011;47983;53.016;-2.260;2023-03-13T05:21:38;14.55;;;2.75;;
59306;SDS011;47983;53.016;-2.260;2023-03-13T05:24:35;17.15;;;1.95;;
59306;SDS011;47983;53.016;-2.260;2023-03-13T05:27:10;10.52;;;1.65;;
59306;SDS011;47983;53.016;-2.260;2023-03-13T05:29:49;12.57;;;1.83;;
59306;SDS011;47983;53.016;-2.260;2023-03-13T05:32:37;14.35;;;2.80;;
59306;SDS011;47983;53.016;-2.260;2023-03-13T05:35:34;15.13;;;1.92;;
59306;SDS011;47983;53.016;-2.260;2023-03-13T05:38:37;18.52;;;1.98;;
59306;SDS011;47983;53.016;-2.260;2023-03-13T05:41:22;17.17;;;1.95;;
59306;SDS011;47983;53.016;-2.260;2023-03-13T05:43:52;17.17;;;3.00;;
59306;SDS011;47983;53.016;-2.260;2023-03-13T05:46:32;15.80;;;2.50;;
59306;SDS011;47983;53.016;-2.260;2023-03-13T05:49:20;24.83;;;3.53;;
59306;SDS011;47983;53.016;-2.260;2023-03-13T05:52:02;16.52;;;2.25;;
59306;SDS011;47983;53.016;-2.260;2023-03-13T05:54:44;20.30;;;2.50;;
59306;SDS011;47983;53.016;-2.260;2023-03-13T05:57:17;21.25;;;3.50;;
59306;SDS011;47983;53.016;-2.260;2023-03-13T06:00:11;17.13;;;2.60;;
59306;SDS011;47983;53.016;-2.260;2023-03-13T06:02:58;23.35;;;3.28;;
59306;SDS011;47983;53.016;-2.260;2023-03-13T06:05:33;18.40;;;2.10;;
59306;SDS011;47983;53.016;-2.260;2023-03-13T06:08:04;7.38;;;1.48;;
59306;SDS011;47983;53.016;-2.260;2023-03-13T06:10:33;18.02;;;2.10;;
59306;SDS011;47983;53.016;-2.260;2023-03-13T06:13:00;10.73;;;1.90;;
59306;SDS011;47983;53.016;-2.260;2023-03-13T06:15:52;21.40;;;2.97;;
59306;SDS011;47983;53.016;-2.260;2023-03-13T06:18:36;9.55;;;1.80;;
59306;SDS011;47983;53.016;-2.260;2023-03-13T06:21:04;13.23;;;2.40;;
59306;SDS011;47983;53.016;-2.260;2023-03-13T06:23:32;12.60;;;2.33;;
59306;SDS011;47983;53.016;-2.260;2023-03-13T06:25:59;19.13;;;2.35;;
59306;SDS011;47983;53.016;-2.260;2023-03-13T06:28:27;16.90;;;3.05;;
59306;SDS011;47983;53.016;-2.260;2023-03-13T06:30:59;8.65;;;1.63;;
59306;SDS011;47983;53.016;-2.260;2023-03-13T06:33:31;12.57;;;1.98;;
59306;SDS011;47983;53.016;-2.260;2023-03-13T06:35:59;15.15;;;2.58;;
59306;SDS011;47983;53.016;-2.260;2023-03-13T06:38:28;12.90;;;1.88;;
59306;SDS011;47983;53.016;-2.260;2023-03-13T06:40:56;14.63;;;2.97;;
59306;SDS011;47983;53.016;-2.260;2023-03-13T06:43:24;9.13;;;1.90;;
59306;SDS011;47983;53.016;-2.260;2023-03-13T06:45:52;15.75;;;2.28;;
59306;SDS011;47983;53.016;-2.260;2023-03-13T06:48:20;16.75;;;3.70;;
59306;SDS011;47983;53.016;-2.260;2023-03-13T06:50:50;15.93;;;2.53;;
59306;SDS011;47983;53.016;-2.260;2023-03-13T06:53:18;12.50;;;2.47;;
59306;SDS011;47983;53.016;-2.260;2023-03-13T06:55:47;9.77;;;1.95;;
59306;SDS011;47983;53.016;-2.260;2023-03-13T06:58:17;20.13;;;2.47;;
59306;SDS011;47983;53.016;-2.260;2023-03-13T07:00:58;22.45;;;3.35;;
59306;SDS011;47983;53.016;-2.260;2023-03-13T07:03:31;18.02;;;3.17;;
59306;SDS011;47983;53.016;-2.260;2023-03-13T07:06:00;20.42;;;3.25;;
59306;SDS011;47983;53.016;-2.260;2023-03-13T07:08:27;21.45;;;3.97;;
59306;SDS011;47983;53.016;-2.260;2023-03-13T07:10:59;20.73;;;2.40;;
59306;SDS011;47983;53.016;-2.260;2023-03-13T07:13:28;18.75;;;2.85;;
59306;SDS011;47983;53.016;-2.260;2023-03-13T07:16:03;19.20;;;2.55;;
59306;SDS011;47983;53.016;-2.260;2023-03-13T07:18:33;20.63;;;2.22;;
59306;SDS011;47983;53.016;-2.260;2023-03-13T07:21:02;23.05;;;2.67;;
59306;SDS011;47983;53.016;-2.260;2023-03-13T07:23:33;18.67;;;3.55;;
59306;SDS011;47983;53.016;-2.260;2023-03-13T07:26:05;14.70;;;2.20;;
59306;SDS011;47983;53.016;-2.260;2023-03-13T07:28:34;11.85;;;2.80;;
59306;SDS011;47983;53.016;-2.260;2023-03-13T07:31:04;24.95;;;3.38;;
59306;SDS011;47983;53.016;-2.260;2023-03-13T07:33:34;17.70;;;3.70;;
59306;SDS011;47983;53.016;-2.260;2023-03-13T07:36:02;22.40;;;2.40;;
59306;SDS011;47983;53.016;-2.260;2023-03-13T07:38:30;19.80;;;3.83;;
59306;SDS011;47983;53.016;-2.260;2023-03-13T07:40:58;26.38;;;2.42;;
59306;SDS011;47983;53.016;-2.260;2023-03-13T07:43:26;23.48;;;2.50;;
59306;SDS011;47983;53.016;-2.260;2023-03-13T07:45:59;14.32;;;1.85;;
59306;SDS011;47983;53.016;-2.260;2023-03-13T07:48:29;9.57;;;1.42;;
59306;SDS011;47983;53.016;-2.260;2023-03-13T07:51:01;9.55;;;1.42;;
59306;SDS011;47983;53.016;-2.260;2023-03-13T07:53:30;15.63;;;1.70;;
59306;SDS011;47983;53.016;-2.260;2023-03-13T07:58:31;12.07;;;2.28;;
59306;SDS011;47983;53.016;-2.260;2023-03-13T08:01:00;11.38;;;1.52;;
59306;SDS011;47983;53.016;-2.260;2023-03-13T08:03:34;6.47;;;1.70;;
59306;SDS011;47983;53.016;-2.260;2023-03-13T08:06:04;11.68;;;1.35;;
59306;SDS011;47983;53.016;-2.260;2023-03-13T08:08:34;7.28;;;1.20;;
59306;SDS011;47983;53.016;-2.260;2023-03-13T08:11:03;10.88;;;1.83;;
59306;SDS011;47983;53.016;-2.260;2023-03-13T08:13:34;10.23;;;1.48;;
59306;SDS011;47983;53.016;-2.260;2023-03-13T08:18:32;9.30;;;1.20;;
59306;SDS011;47983;53.016;-2.260;2023-03-13T08:21:02;9.10;;;1.48;;
59306;SDS011;47983;53.016;-2.260;2023-03-13T08:23:33;7.05;;;1.20;;
59306;SDS011;47983;53.016;-2.260;2023-03-13T08:26:02;6.70;;;1.20;;
59306;SDS011;47983;53.016;-2.260;2023-03-13T08:28:35;10.45;;;1.92;;
59306;SDS011;47983;53.016;-2.260;2023-03-13T08:31:13;11.35;;;1.00;;
59306;SDS011;47983;53.016;-2.260;2023-03-13T08:33:44;13.25;;;1.50;;
59306;SDS011;47983;53.016;-2.260;2023-03-13T08:39:10;4.45;;;1.45;;
59306;SDS011;47983;53.016;-2.260;2023-03-13T08:41:42;9.30;;;1.17;;
59306;SDS011;47983;53.016;-2.260;2023-03-13T08:46:43;6.40;;;1.00;;
59306;SDS011;47983;53.016;-2.260;2023-03-13T08:49:13;8.18;;;0.90;;
59306;SDS011;47983;53.016;-2.260;2023-03-13T08:51:43;10.27;;;0.82;;
59306;SDS011;47983;53.016;-2.260;2023-03-13T08:54:11;6.82;;;0.65;;
59306;SDS011;47983;53.016;-2.260;2023-03-13T08:56:38;6.47;;;0.85;;
59306;SDS011;47983;53.016;-2.260;2023-03-13T08:59:07;5.30;;;0.70;;
59306;SDS011;47983;53.016;-2.260;2023-03-13T09:01:36;4.35;;;1.02;;
59306;SDS011;47983;53.016;-2.260;2023-03-13T09:04:03;4.82;;;0.75;;
59306;SDS011;47983;53.016;-2.260;2023-03-13T09:06:33;4.93;;;1.77;;
59306;SDS011;47983;53.016;-2.260;2023-03-13T09:09:02;8.20;;;1.05;;
59306;SDS011;47983;53.016;-2.260;2023-03-13T09:11:31;8.23;;;0.90;;
59306;SDS011;47983;53.016;-2.260;2023-03-13T09:13:59;6.13;;;1.40;;
59306;SDS011;47983;53.016;-2.260;2023-03-13T09:16:28;4.05;;;0.88;;
59306;SDS011;47983;53.016;-2.260;2023-03-13T09:18:57;2.05;;;0.43;;
59306;SDS011;47983;53.016;-2.260;2023-03-13T09:21:26;3.55;;;0.40;;
59306;SDS011;47983;53.016;-2.260;2023-03-13T09:24:01;4.90;;;0.50;;
59306;SDS011;47983;53.016;-2.260;2023-03-13T09:26:29;7.25;;;2.08;;
59306;SDS011;47983;53.016;-2.260;2023-03-13T09:28:56;3.88;;;0.40;;
59306;SDS011;47983;53.016;-2.260;2023-03-13T09:31:26;2.90;;;0.40;;
59306;SDS011;47983;53.016;-2.260;2023-03-13T09:33:56;6.28;;;0.32;;
59306;SDS011;47983;53.016;-2.260;2023-03-13T09:36:24;3.38;;;0.20;;
59306;SDS011;47983;53.016;-2.260;2023-03-13T09:38:53;2.22;;;0.22;;
59306;SDS011;47983;53.016;-2.260;2023-03-13T09:41:28;1.80;;;0.40;;
59306;SDS011;47983;53.016;-2.260;2023-03-13T09:49:22;2.17;;;0.40;;
59306;SDS011;47983;53.016;-2.260;2023-03-13T09:52:10;2.90;;;0.73;;
59306;SDS011;47983;53.016;-2.260;2023-03-13T09:55:03;5.88;;;0.40;;
59306;SDS011;47983;53.016;-2.260;2023-03-13T09:57:48;3.33;;;0.57;;
59306;SDS011;47983;53.016;-2.260;2023-03-13T10:00:47;2.25;;;0.40;;
59306;SDS011;47983;53.016;-2.260;2023-03-13T10:03:25;2.80;;;0.28;;
59306;SDS011;47983;53.016;-2.260;2023-03-13T10:06:40;2.92;;;0.20;;
59306;SDS011;47983;53.016;-2.260;2023-03-13T10:08:48;1.63;;;0.28;;
59306;SDS011;47983;53.016;-2.260;2023-03-13T10:14:01;1.35;;;0.25;;
59306;SDS011;47983;53.016;-2.260;2023-03-13T10:19:32;2.63;;;0.22;;
59306;SDS011;47983;53.016;-2.260;2023-03-13T10:22:09;3.60;;;0.57;;
59306;SDS011;47983;53.016;-2.260;2023-03-13T10:27:25;0.85;;;0.40;;
59306;SDS011;47983;53.016;-2.260;2023-03-13T10:29:53;1.70;;;0.30;;
59306;SDS011;47983;53.016;-2.260;2023-03-13T10:32:20;1.35;;;0.10;;
59306;SDS011;47983;53.016;-2.260;2023-03-13T10:37:22;1.45;;;0.20;;
59306;SDS011;47983;53.016;-2.260;2023-03-13T10:39:51;2.15;;;0.40;;
59306;SDS011;47983;53.016;-2.260;2023-03-13T10:42:20;1.00;;;0.73;;
59306;SDS011;47983;53.016;-2.260;2023-03-13T10:45:03;1.95;;;0.28;;
59306;SDS011;47983;53.016;-2.260;2023-03-13T10:47:32;0.52;;;0.10;;
59306;SDS011;47983;53.016;-2.260;2023-03-13T10:50:00;2.60;;;0.30;;
59306;SDS011;47983;53.016;-2.260;2023-03-13T10:52:48;3.15;;;0.25;;
59306;SDS011;47983;53.016;-2.260;2023-03-13T10:55:18;2.30;;;0.30;;
59306;SDS011;47983;53.016;-2.260;2023-03-13T10:58:00;7.07;;;0.70;;
59306;SDS011;47983;53.016;-2.260;2023-03-13T11:00:34;3.28;;;0.40;;
59306;SDS011;47983;53.016;-2.260;2023-03-13T11:03:05;3.60;;;0.47;;
59306;SDS011;47983;53.016;-2.260;2023-03-13T11:05:40;6.80;;;1.02;;
59306;SDS011;47983;53.016;-2.260;2023-03-13T11:10:49;3.63;;;0.70;;
59306;SDS011;47983;53.016;-2.260;2023-03-13T11:13:39;6.88;;;1.50;;
59306;SDS011;47983;53.016;-2.260;2023-03-13T11:21:43;5.13;;;0.73;;
59306;SDS011;47983;53.016;-2.260;2023-03-13T11:24:16;2.30;;;0.32;;
59306;SDS011;47983;53.016;-2.260;2023-03-13T11:32:25;5.20;;;0.70;;
59306;SDS011;47983;53.016;-2.260;2023-03-13T11:35:05;5.55;;;1.25;;
59306;SDS011;47983;53.016;-2.260;2023-03-13T11:37:43;4.40;;;0.52;;
59306;SDS011;47983;53.016;-2.260;2023-03-13T11:40:27;7.75;;;1.00;;
59306;SDS011;47983;53.016;-2.260;2023-03-13T12:00:16;6.13;;;1.20;;
59306;SDS011;47983;53.016;-2.260;2023-03-13T12:05:53;16.10;;;4.18;;
59306;SDS011;47983;53.016;-2.260;2023-03-13T12:08:32;12.85;;;1.55;;
59306;SDS011;47983;53.016;-2.260;2023-03-13T12:13:40;7.88;;;1.40;;
59306;SDS011;47983;53.016;-2.260;2023-03-13T12:16:18;7.60;;;1.42;;
59306;SDS011;47983;53.016;-2.260;2023-03-13T12:18:49;6.40;;;1.23;;
59306;SDS011;47983;53.016;-2.260;2023-03-13T12:23:52;16.33;;;2.22;;
59306;SDS011;47983;53.016;-2.260;2023-03-13T12:26:41;8.18;;;1.00;;
59306;SDS011;47983;53.016;-2.260;2023-03-13T12:32:02;8.32;;;1.90;;
59306;SDS011;47983;53.016;-2.260;2023-03-13T12:37:38;7.15;;;1.38;;
59306;SDS011;47983;53.016;-2.260;2023-03-13T12:40:19;9.15;;;0.95;;
59306;SDS011;47983;53.016;-2.260;2023-03-13T12:43:00;11.10;;;1.67;;
59306;SDS011;47983;53.016;-2.260;2023-03-13T12:48:31;7.28;;;0.98;;
59306;SDS011;47983;53.016;-2.260;2023-03-13T12:57:03;9.07;;;1.25;;
59306;SDS011;47983;53.016;-2.260;2023-03-13T12:59:48;4.03;;;1.23;;
59306;SDS011;47983;53.016;-2.260;2023-03-13T13:02:22;8.65;;;1.42;;
59306;SDS011;47983;53.016;-2.260;2023-03-13T13:04:53;10.20;;;1.67;;
59306;SDS011;47983;53.016;-2.260;2023-03-13T13:18:23;6.93;;;2.05;;
59306;SDS011;47983;53.016;-2.260;2023-03-13T13:23:37;4.63;;;0.88;;
59306;SDS011;47983;53.016;-2.260;2023-03-13T13:28:52;8.18;;;0.77;;
59306;SDS011;47983;53.016;-2.260;2023-03-13T13:39:42;6.35;;;0.60;;
59306;SDS011;47983;53.016;-2.260;2023-03-13T13:44:57;7.00;;;1.15;;
59306;SDS011;47983;53.016;-2.260;2023-03-13T13:47:30;6.18;;;0.82;;
59306;SDS011;47983;53.016;-2.260;2023-03-13T13:49:59;11.10;;;1.63;;
59306;SDS011;47983;53.016;-2.260;2023-03-13T13:52:34;2.60;;;0.98;;
59306;SDS011;47983;53.016;-2.260;2023-03-13T13:55:03;7.82;;;1.45;;
59306;SDS011;47983;53.016;-2.260;2023-03-13T13:58:02;7.15;;;0.90;;
59306;SDS011;47983;53.016;-2.260;2023-03-13T14:03:23;5.60;;;0.70;;
59306;SDS011;47983;53.016;-2.260;2023-03-13T14:06:02;8.98;;;1.13;;
59306;SDS011;47983;53.016;-2.260;2023-03-13T14:08:41;5.45;;;0.77;;
59306;SDS011;47983;53.016;-2.260;2023-03-13T14:11:26;6.07;;;1.13;;
59306;SDS011;47983;53.016;-2.260;2023-03-13T14:14:19;7.47;;;1.25;;
59306;SDS011;47983;53.016;-2.260;2023-03-13T14:16:48;8.93;;;2.07;;
59306;SDS011;47983;53.016;-2.260;2023-03-13T14:19:28;4.78;;;1.17;;
59306;SDS011;47983;53.016;-2.260;2023-03-13T14:22:06;8.18;;;1.10;;
59306;SDS011;47983;53.016;-2.260;2023-03-13T14:24:36;7.20;;;0.88;;
59306;SDS011;47983;53.016;-2.260;2023-03-13T14:27:17;4.45;;;0.82;;
59306;SDS011;47983;53.016;-2.260;2023-03-13T14:29:59;4.45;;;0.55;;
59306;SDS011;47983;53.016;-2.260;2023-03-13T14:32:27;6.47;;;1.20;;
59306;SDS011;47983;53.016;-2.260;2023-03-13T14:34:55;3.22;;;0.85;;
59306;SDS011;47983;53.016;-2.260;2023-03-13T14:37:36;7.20;;;0.63;;
59306;SDS011;47983;53.016;-2.260;2023-03-13T14:42:49;7.45;;;1.13;;
59306;SDS011;47983;53.016;-2.260;2023-03-13T14:45:34;7.13;;;1.33;;
59306;SDS011;47983;53.016;-2.260;2023-03-13T14:48:04;5.80;;;0.98;;
59306;SDS011;47983;53.016;-2.260;2023-03-13T14:50:32;7.32;;;0.65;;
59306;SDS011;47983;53.016;-2.260;2023-03-13T14:53:02;4.63;;;1.95;;
59306;SDS011;47983;53.016;-2.260;2023-03-13T14:55:36;2.92;;;0.65;;
59306;SDS011;47983;53.016;-2.260;2023-03-13T15:00:47;7.43;;;0.80;;
59306;SDS011;47983;53.016;-2.260;2023-03-13T15:05:43;7.78;;;1.10;;
59306;SDS011;47983;53.016;-2.260;2023-03-13T15:11:18;8.07;;;0.73;;
59306;SDS011;47983;53.016;-2.260;2023-03-13T15:13:45;3.70;;;1.05;;
59306;SDS011;47983;53.016;-2.260;2023-03-13T15:16:17;9.02;;;1.30;;
59306;SDS011;47983;53.016;-2.260;2023-03-13T15:18:46;8.98;;;0.90;;
59306;SDS011;47983;53.016;-2.260;2023-03-13T15:21:18;4.15;;;1.08;;
59306;SDS011;47983;53.016;-2.260;2023-03-13T15:24:00;10.20;;;1.35;;
59306;SDS011;47983;53.016;-2.260;2023-03-13T15:26:36;13.93;;;2.78;;
59306;SDS011;47983;53.016;-2.260;2023-03-13T15:29:04;7.13;;;0.98;;
59306;SDS011;47983;53.016;-2.260;2023-03-13T15:31:35;7.35;;;1.17;;
59306;SDS011;47983;53.016;-2.260;2023-03-13T15:34:05;9.13;;;0.95;;
59306;SDS011;47983;53.016;-2.260;2023-03-13T15:36:39;6.30;;;1.10;;
59306;SDS011;47983;53.016;-2.260;2023-03-13T15:39:10;8.13;;;1.42;;
59306;SDS011;47983;53.016;-2.260;2023-03-13T15:41:41;13.93;;;1.70;;
59306;SDS011;47983;53.016;-2.260;2023-03-13T15:44:09;11.80;;;1.33;;
59306;SDS011;47983;53.016;-2.260;2023-03-13T15:46:36;10.00;;;1.85;;
59306;SDS011;47983;53.016;-2.260;2023-03-13T15:49:04;11.48;;;1.75;;
59306;SDS011;47983;53.016;-2.260;2023-03-13T15:51:37;15.98;;;3.08;;
59306;SDS011;47983;53.016;-2.260;2023-03-13T15:54:04;17.75;;;2.50;;
59306;SDS011;47983;53.016;-2.260;2023-03-13T15:56:36;13.30;;;2.45;;
59306;SDS011;47983;53.016;-2.260;2023-03-13T15:59:11;10.93;;;1.75;;
59306;SDS011;47983;53.016;-2.260;2023-03-13T16:01:41;12.10;;;2.28;;
59306;SDS011;47983;53.016;-2.260;2023-03-13T16:04:11;16.10;;;2.13;;
59306;SDS011;47983;53.016;-2.260;2023-03-13T16:06:39;9.88;;;2.20;;
59306;SDS011;47983;53.016;-2.260;2023-03-13T16:09:07;11.23;;;1.85;;
59306;SDS011;47983;53.016;-2.260;2023-03-13T16:11:34;15.38;;;2.72;;
59306;SDS011;47983;53.016;-2.260;2023-03-13T16:14:02;13.15;;;1.85;;
59306;SDS011;47983;53.016;-2.260;2023-03-13T16:16:30;17.10;;;2.30;;
59306;SDS011;47983;53.016;-2.260;2023-03-13T16:19:08;17.60;;;2.63;;
59306;SDS011;47983;53.016;-2.260;2023-03-13T16:21:36;21.17;;;2.85;;
59306;SDS011;47983;53.016;-2.260;2023-03-13T16:24:06;14.15;;;2.03;;
59306;SDS011;47983;53.016;-2.260;2023-03-13T16:26:34;16.52;;;2.60;;
59306;SDS011;47983;53.016;-2.260;2023-03-13T16:29:02;15.90;;;3.10;;
59306;SDS011;47983;53.016;-2.260;2023-03-13T16:31:30;12.75;;;2.58;;
59306;SDS011;47983;53.016;-2.260;2023-03-13T16:33:58;16.05;;;2.72;;
59306;SDS011;47983;53.016;-2.260;2023-03-13T16:36:28;12.27;;;2.63;;
59306;SDS011;47983;53.016;-2.260;2023-03-13T16:38:58;13.43;;;2.17;;
59306;SDS011;47983;53.016;-2.260;2023-03-13T16:41:26;16.13;;;2.78;;
59306;SDS011;47983;53.016;-2.260;2023-03-13T16:43:55;17.15;;;2.85;;
59306;SDS011;47983;53.016;-2.260;2023-03-13T16:46:24;13.93;;;2.45;;
59306;SDS011;47983;53.016;-2.260;2023-03-13T16:48:58;19.63;;;4.05;;
59306;SDS011;47983;53.016;-2.260;2023-03-13T16:51:26;13.52;;;2.85;;
59306;SDS011;47983;53.016;-2.260;2023-03-13T16:53:55;15.48;;;2.30;;
59306;SDS011;47983;53.016;-2.260;2023-03-13T16:56:27;18.45;;;3.50;;
59306;SDS011;47983;53.016;-2.260;2023-03-13T16:58:57;18.35;;;2.33;;
59306;SDS011;47983;53.016;-2.260;2023-03-13T17:01:27;19.42;;;2.78;;
59306;SDS011;47983;53.016;-2.260;2023-03-13T17:03:56;16.50;;;2.33;;
59306;SDS011;47983;53.016;-2.260;2023-03-13T17:06:30;21.20;;;2.90;;
59306;SDS011;47983;53.016;-2.260;2023-03-13T17:09:00;13.18;;;2.63;;
59306;SDS011;47983;53.016;-2.260;2023-03-13T17:11:29;16.38;;;4.07;;
59306;SDS011;47983;53.016;-2.260;2023-03-13T17:13:56;15.07;;;2.75;;